Aspermont, TX

4:35 PM CDT on May 25, 2015 (GMT -0500)
Farm | | Change Station
CLOSE
Current Station
Personal Weather Station
Location: Aspermont, TX
Elevation: 1650 ft
Nearby Weather Stations

Elev 1650 ft 33.25 °N, 100.21 °W | Updated 11 seconds ago

Partly Cloudy
Partly Cloudy
74.7 °F
Feels Like 77 °F
N
2.9
Wind Variable Wind from North
Gusts 4.0 mph

Today
High -- | Low -- °F
--% Chance of Precip.
Yesterday
High -- | Low -- °F
Precip. -- in
6:35 AM 8:40 PM
First Quarter, 52% visible
Pressure 29.92 in
Visibility 10.0 miles
Clouds Clear
Heat Index 77 °F
Dew Point 57 °F
Humidity 54%
Rainfall 0.20 in
Snow Depth Not available.
UV 9 out of 12
Pollen 2.40 out of 12
Air Quality Not available.
Flu Activity Sporadic
METAR KSWW 252115Z AUTO 21004KT 10SM CLR 22/13 A2992 RMK AO2 LTG DSNT NW T02230125

More Conditions Fewer Conditions

Pressure 29.92 in
Visibility 10.0 miles
Clouds Clear
Heat Index 77 °F
Dew Point 57 °F
Humidity 54%
Rainfall 0.20 in
Snow Depth Not available.
UV 9 out of 12
Pollen 2.40 out of 12
Air Quality Not available.
Flu Activity Sporadic
METAR KSWW 252115Z AUTO 21004KT 10SM CLR 22/13 A2992 RMK AO2 LTG DSNT NW T02230125

More Conditions Fewer Conditions

10-Day Weather Forecast

Almanac

Astronomy

May. 25, 2015 Rise Set
Actual Time
Civil Twilight
Nautical Twilight
Astronomical Twilight
Moon
Length of Visible Light
Length of Day
Tomorrow will be .
, % of the Moon is Illuminated

Today's Extremes

State Highs State Lows

Community

WunderPhotos

Upload Photos

1,824,139 photos uploaded!

WunderBlogs® & News

Nearby

Air Quality

  Air Quality AQ Index Pollutant
Not available.

Snow Depth

Station Depth Elevation

Earthquake Activity

City Distance Mag. Time & Date
Minimum magnitude displayed is 2.5.

Coastal Water Temperatures

Place Temperature

Stations

Nearby Weather Stations

Station Location Temp. Windchill Dew Point Humidity Wind Precip. Elev Updated Type